createdAt,value
2023-05-19T00:00:51.619Z,101237.16
2023-05-19T00:01:39.599Z,101229.81
2023-05-19T00:03:06.730Z,101222.16
2023-05-19T00:04:09.571Z,101220.56
2023-05-19T00:05:03.589Z,101217.47
2023-05-19T00:05:58.611Z,101229.06
2023-05-19T00:06:53.623Z,101206.66
2023-05-19T00:07:53.591Z,101235.34
2023-05-19T00:08:48.589Z,101223.16
2023-05-19T00:09:43.582Z,101210.59
2023-05-19T00:10:39.572Z,101232.75
2023-05-19T00:11:33.575Z,101211.56
2023-05-19T00:12:16.590Z,101218.19
2023-05-19T00:13:12.615Z,101209.09
2023-05-19T00:14:11.603Z,101233.09
2023-05-19T00:15:06.580Z,101227.09
2023-05-19T00:16:00.622Z,101241.63
2023-05-19T00:16:55.567Z,101216.13
2023-05-19T00:17:36.766Z,101223.91
2023-05-19T00:18:16.778Z,101241.25
2023-05-19T00:18:58.651Z,101236.97
2023-05-19T00:19:40.320Z,101232.75
2023-05-19T00:20:22.633Z,101243.72
2023-05-19T00:21:02.680Z,101231.63
2023-05-19T00:21:46.584Z,101222.16
2023-05-19T00:22:26.640Z,101243.97
2023-05-19T00:23:06.572Z,101242.00
2023-05-19T00:23:46.652Z,101232.75
2023-05-19T00:24:26.621Z,101224.13
2023-05-19T00:25:06.811Z,101220.69
2023-05-19T00:25:47.574Z,101216.28
2023-05-19T00:26:27.734Z,101214.66
2023-05-19T00:27:07.566Z,101234.50
2023-05-19T00:27:47.658Z,101236.47
2023-05-19T00:28:27.595Z,101219.84
2023-05-19T00:29:07.660Z,101222.41
2023-05-19T00:29:48.562Z,101228.56
2023-05-19T00:30:29.199Z,101234.34
2023-05-19T00:31:11.563Z,101235.47
2023-05-19T00:31:51.729Z,101237.47
2023-05-19T00:32:31.611Z,101228.84
2023-05-19T00:33:11.656Z,101220.09
2023-05-19T00:33:52.571Z,101225.00
2023-05-19T00:34:32.626Z,101238.44
2023-05-19T00:35:13.559Z,101232.16
2023-05-19T00:35:53.629Z,101218.22
2023-05-19T00:36:33.538Z,101204.94
2023-05-19T00:37:13.646Z,101232.97
2023-05-19T00:37:55.608Z,101224.00
2023-05-19T00:38:39.706Z,101217.47
2023-05-19T00:39:19.575Z,101237.28
2023-05-19T00:39:59.847Z,101239.69
2023-05-19T00:40:42.546Z,101236.72
2023-05-19T00:41:22.744Z,101220.59
2023-05-19T00:42:03.558Z,101222.94
2023-05-19T00:42:43.672Z,101227.66
2023-05-19T00:43:23.526Z,101209.41
2023-05-19T00:44:17.546Z,101234.38
2023-05-19T00:44:58.551Z,101228.38
2023-05-19T00:45:38.651Z,101237.50
2023-05-19T00:46:19.636Z,101223.44
2023-05-19T00:46:59.821Z,101223.19
2023-05-19T00:47:40.580Z,101231.09
2023-05-19T00:48:21.059Z,101214.56
2023-05-19T00:49:01.543Z,101206.53
2023-05-19T00:49:42.569Z,101215.91
2023-05-19T00:50:17.629Z,101222.81
2023-05-19T00:51:10.558Z,101217.16
2023-05-19T00:51:44.625Z,101220.25
2023-05-19T00:52:33.577Z,101226.31
2023-05-19T00:53:07.632Z,101214.22
2023-05-19T00:53:57.544Z,101211.75
2023-05-19T00:54:31.656Z,101210.16
2023-05-19T00:55:12.547Z,101216.81
2023-05-19T00:55:52.654Z,101203.00
2023-05-19T00:56:32.523Z,101197.38
2023-05-19T00:57:12.649Z,101212.28
2023-05-19T00:57:53.536Z,101226.44
2023-05-19T00:58:34.635Z,101224.72
2023-05-19T00:59:15.537Z,101223.50
2023-05-19T00:59:56.489Z,101209.44
2023-05-19T01:00:37.591Z,101230.41
2023-05-19T01:01:17.767Z,101229.28
2023-05-19T01:01:57.553Z,101222.28
2023-05-19T01:02:39.991Z,101222.50
2023-05-19T01:03:21.636Z,101206.59
2023-05-19T01:04:01.951Z,101232.72
2023-05-19T01:04:43.533Z,101235.84
2023-05-19T01:05:24.658Z,101232.88
2023-05-19T01:06:08.550Z,101230.16
2023-05-19T01:06:49.632Z,101221.28
2023-05-19T01:07:30.539Z,101217.81
2023-05-19T01:08:11.609Z,101224.00
2023-05-19T01:08:53.509Z,101227.19
2023-05-19T01:09:33.628Z,101225.34
2023-05-19T01:10:15.530Z,101224.22
2023-05-19T01:10:55.650Z,101227.69
2023-05-19T01:11:35.530Z,101233.97
2023-05-19T01:12:15.656Z,101229.63
2023-05-19T01:12:55.545Z,101223.22
2023-05-19T01:13:36.788Z,101212.75
2023-05-19T01:14:16.515Z,101217.91
2023-05-19T01:14:56.665Z,101221.72
2023-05-19T01:15:40.495Z,101212.63
2023-05-19T01:16:48.769Z,101220.75
2023-05-19T01:18:17.515Z,101223.94
2023-05-19T01:19:27.539Z,101218.03
2023-05-19T01:20:24.537Z,101205.69
2023-05-19T01:21:56.589Z,101226.88
2023-05-19T01:23:23.525Z,101222.47
2023-05-19T01:24:53.527Z,101223.19
2023-05-19T01:26:28.515Z,101224.41
2023-05-19T01:28:07.538Z,101229.84
2023-05-19T01:29:42.699Z,101225.38
2023-05-19T01:30:40.523Z,101193.34
2023-05-19T01:31:16.598Z,101194.81
2023-05-19T01:32:06.723Z,101215.00
2023-05-19T01:32:41.579Z,101223.91
2023-05-19T01:33:30.502Z,101199.16
2023-05-19T01:34:05.728Z,101206.88
2023-05-19T01:34:53.500Z,101221.56
2023-05-19T01:35:30.575Z,101213.19
2023-05-19T01:36:19.505Z,101216.50
2023-05-19T01:36:55.625Z,101209.50
2023-05-19T01:37:44.527Z,101218.00
2023-05-19T01:38:19.633Z,101226.25
2023-05-19T01:39:04.505Z,101214.41
2023-05-19T01:39:45.709Z,101227.34
2023-05-19T01:40:27.500Z,101205.94
2023-05-19T01:41:10.577Z,101233.53
2023-05-19T01:41:51.483Z,101227.38
2023-05-19T01:42:37.267Z,101220.34
2023-05-19T01:43:23.508Z,101228.09
2023-05-19T01:44:03.578Z,101200.25
2023-05-19T01:44:44.523Z,101212.59
2023-05-19T01:45:25.850Z,101228.97
2023-05-19T01:46:06.510Z,101217.88
2023-05-19T01:46:46.588Z,101224.44
2023-05-19T01:47:27.526Z,101216.31
2023-05-19T01:48:11.962Z,101219.97
2023-05-19T01:48:53.502Z,101221.47
2023-05-19T01:49:33.600Z,101234.53
2023-05-19T01:50:14.580Z,101222.94
2023-05-19T01:50:57.251Z,101230.94
2023-05-19T01:51:38.491Z,101231.28
2023-05-19T01:52:18.598Z,101221.94
2023-05-19T01:52:59.468Z,101245.50
2023-05-19T01:53:39.575Z,101220.09
2023-05-19T01:54:19.476Z,101215.31
2023-05-19T01:54:59.785Z,101206.41
2023-05-19T01:55:54.529Z,101230.44
2023-05-19T01:56:50.876Z,101230.44
2023-05-19T01:57:48.492Z,101244.88
2023-05-19T01:58:44.605Z,101192.00
2023-05-19T02:00:12.504Z,101243.44
2023-05-19T02:01:42.546Z,101231.56
2023-05-19T02:03:45.491Z,101243.00
2023-05-19T02:04:57.513Z,101230.38
2023-05-19T02:06:17.474Z,101233.53
2023-05-19T02:07:49.483Z,101227.84
2023-05-19T02:08:58.565Z,101242.91
2023-05-19T02:10:05.486Z,101233.28
2023-05-19T02:10:40.956Z,101225.50
2023-05-19T02:11:48.472Z,101232.44
2023-05-19T02:12:35.914Z,101219.22
2023-05-19T02:13:17.475Z,101236.72
2023-05-19T02:14:01.558Z,101233.41
2023-05-19T02:15:12.480Z,101234.53
2023-05-19T02:15:53.708Z,101237.09
2023-05-19T02:16:36.468Z,101230.09
2023-05-19T02:17:20.662Z,101237.00
2023-05-19T02:18:02.495Z,101222.47
2023-05-19T02:18:42.496Z,101227.16
2023-05-19T02:19:32.681Z,101232.66
2023-05-19T02:20:20.447Z,101233.94
2023-05-19T02:20:54.540Z,101237.63
2023-05-19T02:21:42.464Z,101240.34
2023-05-19T02:22:16.568Z,101214.09
2023-05-19T02:23:03.471Z,101215.06
2023-05-19T02:23:37.552Z,101220.50
2023-05-19T02:24:17.579Z,101230.38
2023-05-19T02:24:57.747Z,101217.28
2023-05-19T02:25:38.455Z,101217.16
2023-05-19T02:26:18.757Z,101231.22
2023-05-19T02:27:00.463Z,101230.59
2023-05-19T02:27:44.544Z,101199.81
2023-05-19T02:28:25.470Z,101234.81
2023-05-19T02:29:05.569Z,101228.44
2023-05-19T02:29:45.482Z,101226.09
2023-05-19T02:30:25.848Z,101213.16
2023-05-19T02:31:05.447Z,101235.84
2023-05-19T02:31:45.631Z,101235.97
2023-05-19T02:32:27.484Z,101236.22
2023-05-19T02:33:07.771Z,101224.25
2023-05-19T02:33:49.435Z,101229.44
2023-05-19T02:34:29.579Z,101222.81
2023-05-19T02:35:10.476Z,101234.25
2023-05-19T02:35:50.546Z,101219.59
2023-05-19T02:36:33.435Z,101225.41
2023-05-19T02:37:14.531Z,101241.41
2023-05-19T02:37:54.472Z,101235.88
2023-05-19T02:38:34.540Z,101221.31
2023-05-19T02:39:15.452Z,101228.81
2023-05-19T02:39:55.528Z,101215.16
2023-05-19T02:40:35.519Z,101227.97
2023-05-19T02:41:15.571Z,101207.75
2023-05-19T02:41:55.451Z,101236.22
2023-05-19T02:42:35.617Z,101218.81
2023-05-19T02:43:15.443Z,101215.38
2023-05-19T02:43:55.656Z,101212.19
2023-05-19T02:44:35.430Z,101213.66
2023-05-19T02:45:15.654Z,101219.59
2023-05-19T02:45:55.497Z,101231.66
2023-05-19T02:46:36.605Z,101219.59
2023-05-19T02:47:17.411Z,101228.59
2023-05-19T02:47:57.622Z,101204.19
2023-05-19T02:48:37.422Z,101209.50
2023-05-19T02:49:17.596Z,101226.03
2023-05-19T02:49:57.447Z,101227.59
2023-05-19T02:50:37.592Z,101202.22
2023-05-19T02:51:17.448Z,101222.81
2023-05-19T02:51:57.565Z,101215.16
2023-05-19T02:52:37.426Z,101220.19
2023-05-19T02:53:17.511Z,101224.53
2023-05-19T02:53:57.443Z,101225.38
2023-05-19T02:54:38.565Z,101215.16
2023-05-19T02:55:23.440Z,101224.75
2023-05-19T02:56:03.619Z,101216.41
2023-05-19T02:56:43.457Z,101173.88
2023-05-19T02:57:24.120Z,101210.97
2023-05-19T02:58:05.448Z,101186.56
2023-05-19T02:58:45.510Z,101214.19
2023-05-19T02:59:25.805Z,101224.25
2023-05-19T03:00:06.789Z,101208.75
2023-05-19T03:00:46.425Z,101200.84
2023-05-19T03:01:26.539Z,101205.19
2023-05-19T03:02:08.571Z,101212.53
2023-05-19T03:02:48.597Z,101215.13
2023-05-19T03:03:29.553Z,101207.72
2023-05-19T03:04:03.562Z,101197.13
2023-05-19T03:04:50.416Z,101206.75
2023-05-19T03:05:24.183Z,101205.88
2023-05-19T03:06:15.433Z,101209.09
2023-05-19T03:06:49.136Z,101207.94
2023-05-19T03:07:31.463Z,101213.88
2023-05-19T03:08:06.227Z,101222.50
2023-05-19T03:08:42.305Z,101210.91
2023-05-19T03:09:23.440Z,101188.22
2023-05-19T03:09:57.504Z,101199.06
2023-05-19T03:10:31.641Z,101206.81
2023-05-19T03:11:12.415Z,101193.88
2023-05-19T03:11:46.512Z,101214.56
2023-05-19T03:12:20.195Z,101195.09
2023-05-19T03:13:00.418Z,101200.25
2023-05-19T03:13:34.886Z,101191.38
2023-05-19T03:14:09.526Z,101195.44
2023-05-19T03:14:50.446Z,101214.00
2023-05-19T03:15:24.534Z,101201.22
2023-05-19T03:15:59.247Z,101211.56
2023-05-19T03:16:40.478Z,101203.78
2023-05-19T03:17:14.586Z,101212.19
2023-05-19T03:17:49.404Z,101190.56
2023-05-19T03:18:31.427Z,101204.09
2023-05-19T03:19:05.752Z,101202.13
2023-05-19T03:19:41.514Z,101210.00
2023-05-19T03:20:22.429Z,101207.56
2023-05-19T03:20:56.593Z,101198.94
2023-05-19T03:21:32.120Z,101199.19
2023-05-19T03:22:12.407Z,101201.50
2023-05-19T03:22:46.524Z,101197.06
2023-05-19T03:23:21.789Z,101188.06
2023-05-19T03:24:01.417Z,101208.13
2023-05-19T03:24:36.243Z,101202.97
2023-05-19T03:25:10.558Z,101198.94
2023-05-19T03:25:51.400Z,101204.56
2023-05-19T03:26:26.170Z,101186.75
2023-05-19T03:27:00.653Z,101211.47
2023-05-19T03:27:40.406Z,101205.91
2023-05-19T03:28:14.527Z,101196.16
2023-05-19T03:28:49.140Z,101188.25
2023-05-19T03:29:30.516Z,101204.03
2023-05-19T03:30:06.631Z,101188.53
2023-05-19T03:30:41.194Z,101193.44
2023-05-19T03:31:22.401Z,101182.59
2023-05-19T03:31:56.482Z,101193.44
2023-05-19T03:32:32.829Z,101197.34
2023-05-19T03:33:14.651Z,101192.94
2023-05-19T03:33:48.529Z,101211.16
2023-05-19T03:34:22.496Z,101205.22
2023-05-19T03:35:02.427Z,101192.78
2023-05-19T03:35:36.517Z,101187.50
2023-05-19T03:36:12.595Z,101183.78
2023-05-19T03:36:52.390Z,101210.63
2023-05-19T03:37:26.547Z,101210.78
2023-05-19T03:38:00.131Z,101201.06
2023-05-19T03:38:40.383Z,101195.13
2023-05-19T03:39:14.943Z,101216.59
2023-05-19T03:39:49.195Z,101191.78
2023-05-19T03:40:30.551Z,101217.69
2023-05-19T03:41:04.494Z,101199.34
2023-05-19T03:41:38.163Z,101210.06
2023-05-19T03:42:18.422Z,101208.19
2023-05-19T03:42:54.235Z,101207.94
2023-05-19T03:43:28.187Z,101184.56
2023-05-19T03:44:09.400Z,101206.72
2023-05-19T03:44:44.620Z,101208.19
2023-05-19T03:45:18.190Z,101196.13
2023-05-19T03:45:59.458Z,101211.09
2023-05-19T03:46:33.466Z,101197.59
2023-05-19T03:47:07.327Z,101213.34
2023-05-19T03:47:51.460Z,101205.97
2023-05-19T03:48:26.695Z,101212.31
2023-05-19T03:49:00.194Z,101189.31
2023-05-19T03:49:40.376Z,101215.47
2023-05-19T03:50:14.476Z,101202.72
2023-05-19T03:50:48.605Z,101205.13
2023-05-19T03:51:28.389Z,101207.59
2023-05-19T03:52:04.574Z,101221.78
2023-05-19T03:52:39.797Z,101201.47
2023-05-19T03:53:19.460Z,101218.19
2023-05-19T03:53:53.587Z,101216.88
2023-05-19T03:54:27.485Z,101204.28
2023-05-19T03:55:07.389Z,101211.03
2023-05-19T03:55:41.474Z,101212.31
2023-05-19T03:56:16.787Z,101211.66
2023-05-19T03:56:56.393Z,101218.66
2023-05-19T03:57:30.475Z,101192.16
2023-05-19T03:58:04.259Z,101190.59
2023-05-19T03:58:47.358Z,101208.78
2023-05-19T03:59:21.469Z,101217.41
2023-05-19T03:59:55.220Z,101200.91
2023-05-19T04:00:35.656Z,101206.06
2023-05-19T04:01:09.474Z,101204.06
2023-05-19T04:01:43.211Z,101206.06
2023-05-19T04:03:18.587Z,101216.69
2023-05-19T04:03:53.136Z,101203.19
2023-05-19T04:04:34.396Z,101205.34
2023-05-19T04:05:15.510Z,101215.38
2023-05-19T04:05:55.424Z,101200.56
2023-05-19T04:06:36.244Z,101208.06
2023-05-19T04:07:16.365Z,101208.06
2023-05-19T04:07:57.409Z,101211.78
2023-05-19T04:08:32.110Z,101184.22
2023-05-19T04:09:13.449Z,101206.59
2023-05-19T04:09:55.407Z,101216.63
2023-05-19T04:10:29.587Z,101204.19
2023-05-19T04:11:03.158Z,101197.41
2023-05-19T04:11:45.353Z,101201.47
2023-05-19T04:12:19.472Z,101198.28
2023-05-19T04:12:53.102Z,101192.84
2023-05-19T04:13:33.391Z,101209.06
2023-05-19T04:14:07.490Z,101187.97
2023-05-19T04:14:41.141Z,101207.59
2023-05-19T04:15:22.355Z,101207.06
2023-05-19T04:15:56.505Z,101216.56
2023-05-19T04:16:30.161Z,101216.41
2023-05-19T04:17:11.345Z,101192.16
2023-05-19T04:17:46.045Z,101222.13
2023-05-19T04:18:20.077Z,101220.13
2023-05-19T04:19:01.402Z,101208.53
2023-05-19T04:19:35.546Z,101221.59
2023-05-19T04:20:09.994Z,101203.81
2023-05-19T04:20:50.371Z,101198.38
2023-05-19T04:21:24.483Z,101208.72
2023-05-19T04:21:58.080Z,101200.72
2023-05-19T04:22:39.344Z,101184.31
2023-05-19T04:23:13.430Z,101201.09
2023-05-19T04:23:47.071Z,101190.03
2023-05-19T04:24:27.359Z,101193.47
2023-05-19T04:25:01.744Z,101201.34
2023-05-19T04:25:48.360Z,101205.28
2023-05-19T04:26:24.820Z,101213.63
2023-05-19T04:27:12.438Z,101213.75
2023-05-19T04:27:48.280Z,101216.78
2023-05-19T04:28:36.357Z,101220.22
2023-05-19T04:29:10.752Z,101204.44
2023-05-19T04:29:52.437Z,101201.41
2023-05-19T04:30:34.429Z,101222.50
2023-05-19T04:31:19.395Z,101218.50
2023-05-19T04:32:00.953Z,101206.19
2023-05-19T04:32:43.374Z,101206.91
2023-05-19T04:33:26.449Z,101196.59
2023-05-19T04:34:08.358Z,101206.91
2023-05-19T04:34:48.440Z,101217.97
2023-05-19T04:35:29.394Z,101212.38
2023-05-19T04:36:10.511Z,101217.13
2023-05-19T04:36:53.127Z,101197.63
2023-05-19T04:37:33.405Z,101213.28
2023-05-19T04:38:14.344Z,101201.41
2023-05-19T04:38:55.102Z,101220.59
2023-05-19T04:39:35.364Z,101222.31
2023-05-19T04:40:17.367Z,101212.84
2023-05-19T04:40:58.368Z,101217.75
2023-05-19T04:41:40.432Z,101197.94
2023-05-19T04:42:21.354Z,101206.28
2023-05-19T04:43:02.314Z,101217.09
2023-05-19T04:43:43.344Z,101200.31
2023-05-19T04:44:23.505Z,101205.75
2023-05-19T04:45:03.367Z,101216.63
2023-05-19T04:45:43.444Z,101210.91
2023-05-19T04:46:24.557Z,101203.75
2023-05-19T04:47:06.268Z,101202.88
2023-05-19T04:47:48.467Z,101224.41
2023-05-19T04:48:30.955Z,101206.38
2023-05-19T04:49:11.335Z,101221.28
2023-05-19T04:49:55.499Z,101211.81
2023-05-19T04:50:37.584Z,101212.25
2023-05-19T04:51:17.754Z,101207.53
2023-05-19T04:51:59.391Z,101215.16
2023-05-19T04:52:41.762Z,101202.97
2023-05-19T04:53:22.368Z,101200.22
2023-05-19T04:54:02.623Z,101185.75
2023-05-19T04:54:44.364Z,101216.16
2023-05-19T04:55:24.543Z,101197.19
2023-05-19T04:56:07.380Z,101216.16
2023-05-19T04:56:47.412Z,101215.16
2023-05-19T04:57:27.329Z,101219.31
2023-05-19T04:58:08.030Z,101216.38
2023-05-19T04:58:51.374Z,101203.28
2023-05-19T04:59:31.614Z,101206.44
2023-05-19T05:00:15.337Z,101194.13
2023-05-19T05:00:55.969Z,101210.63
2023-05-19T05:01:37.405Z,101201.00
2023-05-19T05:02:18.519Z,101217.13
2023-05-19T05:02:59.415Z,101214.81
2023-05-19T05:03:39.624Z,101202.63
2023-05-19T05:04:19.366Z,101221.69
2023-05-19T05:04:59.476Z,101221.97
2023-05-19T05:05:39.339Z,101195.56
2023-05-19T05:06:19.402Z,101223.28
2023-05-19T05:07:00.346Z,101223.41
2023-05-19T05:07:40.487Z,101218.38
2023-05-19T05:08:22.339Z,101192.72
2023-05-19T05:09:04.270Z,101213.13
2023-05-19T05:09:44.302Z,101187.13
2023-05-19T05:10:24.406Z,101202.47
2023-05-19T05:11:06.346Z,101198.47
2023-05-19T05:11:47.558Z,101209.50
2023-05-19T05:12:28.339Z,101218.25
2023-05-19T05:13:11.615Z,101199.25
2023-05-19T05:13:53.342Z,101219.09
2023-05-19T05:14:34.424Z,101207.91
2023-05-19T05:15:16.330Z,101228.56
2023-05-19T05:15:57.621Z,101229.56
2023-05-19T05:16:38.343Z,101213.97
2023-05-19T05:17:19.436Z,101221.41
2023-05-19T05:18:00.417Z,101216.81
2023-05-19T05:18:44.321Z,101220.84
2023-05-19T05:19:26.457Z,101204.63
2023-05-19T05:20:06.951Z,101196.44
2023-05-19T05:20:52.307Z,101205.38
2023-05-19T05:21:33.431Z,101201.50
2023-05-19T05:22:14.330Z,101216.72
2023-05-19T05:22:55.854Z,101228.19
2023-05-19T05:23:37.316Z,101204.81
2023-05-19T05:24:18.571Z,101206.53
2023-05-19T05:24:59.354Z,101225.72
2023-05-19T05:25:57.321Z,101211.81
2023-05-19T05:26:52.307Z,101220.84
2023-05-19T05:27:46.326Z,101204.81
2023-05-19T05:28:41.292Z,101222.31
2023-05-19T05:29:35.278Z,101220.88
2023-05-19T05:30:22.409Z,101211.81
2023-05-19T05:30:57.834Z,101208.84
2023-05-19T05:31:45.303Z,101223.47
2023-05-19T05:32:19.520Z,101219.72
2023-05-19T05:33:06.521Z,101226.78
2023-05-19T05:33:40.580Z,101205.38
2023-05-19T05:34:27.313Z,101223.63
2023-05-19T05:35:01.385Z,101206.41
2023-05-19T05:35:42.293Z,101213.00
2023-05-19T05:36:22.407Z,101200.66
2023-05-19T05:37:02.315Z,101210.28
2023-05-19T05:37:42.388Z,101212.88
2023-05-19T05:38:22.345Z,101217.31
2023-05-19T05:39:02.512Z,101196.78
2023-05-19T05:39:43.321Z,101205.41
2023-05-19T05:40:23.438Z,101221.19
2023-05-19T05:41:03.308Z,101216.59
2023-05-19T05:41:45.453Z,101203.94
2023-05-19T05:42:28.946Z,101216.44
2023-05-19T05:43:10.520Z,101222.03
2023-05-19T05:43:51.312Z,101216.44
2023-05-19T05:44:31.594Z,101207.97
2023-05-19T05:45:12.324Z,101218.31
2023-05-19T05:45:52.395Z,101227.34
2023-05-19T05:46:32.524Z,101229.03
2023-05-19T05:47:13.766Z,101219.31
2023-05-19T05:47:54.343Z,101220.03
2023-05-19T05:48:35.688Z,101221.19
2023-05-19T05:49:16.280Z,101219.31
2023-05-19T05:49:57.442Z,101222.59
2023-05-19T05:50:38.342Z,101207.34
2023-05-19T05:51:18.394Z,101217.69
2023-05-19T05:52:05.778Z,101227.75
2023-05-19T05:52:48.454Z,101230.59
2023-05-19T05:53:29.271Z,101209.50
2023-05-19T05:54:09.394Z,101221.69
2023-05-19T05:54:50.274Z,101231.31
2023-05-19T05:55:31.625Z,101215.13
2023-05-19T05:56:14.291Z,101203.94
2023-05-19T05:56:55.372Z,101204.81
2023-05-19T05:57:37.297Z,101218.88
2023-05-19T05:58:17.360Z,101210.28
2023-05-19T05:58:58.279Z,101224.50
2023-05-19T05:59:41.241Z,101226.94
2023-05-19T06:00:22.303Z,101222.09
2023-05-19T06:01:02.693Z,101224.66
2023-05-19T06:01:43.308Z,101215.78
2023-05-19T06:03:03.435Z,101226.38
2023-05-19T06:03:58.318Z,101210.00
2023-05-19T06:04:52.294Z,101222.38
2023-05-19T06:05:46.308Z,101193.81
2023-05-19T06:06:40.279Z,101222.81
2023-05-19T06:07:35.296Z,101212.19
2023-05-19T06:08:24.316Z,101210.59
2023-05-19T06:08:58.412Z,101207.44
2023-05-19T06:09:45.306Z,101208.72
2023-05-19T06:10:19.644Z,101218.63
2023-05-19T06:11:06.281Z,101206.88
2023-05-19T06:11:40.449Z,101217.78
2023-05-19T06:12:29.285Z,101214.59
2023-05-19T06:13:03.409Z,101195.13
2023-05-19T06:13:44.289Z,101194.81
2023-05-19T06:14:24.374Z,101197.00
2023-05-19T06:15:05.300Z,101219.19
2023-05-19T06:15:45.465Z,101220.66
2023-05-19T06:16:28.374Z,101218.66
2023-05-19T06:17:08.406Z,101207.31
2023-05-19T06:17:48.334Z,101219.66
2023-05-19T06:18:28.355Z,101202.72
2023-05-19T06:19:08.355Z,101219.66
2023-05-19T06:19:49.838Z,101218.47
2023-05-19T06:20:31.614Z,101209.88
2023-05-19T06:21:13.374Z,101193.41
2023-05-19T06:21:53.274Z,101189.22
2023-05-19T06:22:34.475Z,101216.63
2023-05-19T06:23:15.279Z,101211.19
2023-05-19T06:24:10.298Z,101197.84
2023-05-19T06:25:04.285Z,101198.00
2023-05-19T06:25:58.322Z,101207.47
2023-05-19T06:26:52.282Z,101222.38
2023-05-19T06:27:46.250Z,101202.31
2023-05-19T06:28:40.275Z,101210.19
2023-05-19T06:29:27.266Z,101214.34
2023-05-19T06:30:01.363Z,101222.41
2023-05-19T06:30:48.264Z,101225.53
2023-05-19T06:31:22.935Z,101229.84
2023-05-19T06:32:11.254Z,101227.56
2023-05-19T06:32:46.170Z,101202.31
2023-05-19T06:33:33.288Z,101226.69
2023-05-19T06:34:07.379Z,101220.38
2023-05-19T06:34:47.319Z,101236.16
2023-05-19T06:35:27.378Z,101215.19
2023-05-19T06:36:08.242Z,101224.13
2023-05-19T06:36:48.348Z,101236.28
2023-05-19T06:37:29.235Z,101237.59
2023-05-19T06:38:09.349Z,101221.34
2023-05-19T06:38:49.257Z,101230.66
2023-05-19T06:39:29.348Z,101233.44
2023-05-19T06:40:10.292Z,101230.59
2023-05-19T06:40:50.354Z,101230.59
2023-05-19T06:41:30.245Z,101224.13
2023-05-19T06:42:11.351Z,101232.16
2023-05-19T06:42:51.270Z,101239.44
2023-05-19T06:43:31.444Z,101233.16
2023-05-19T06:44:15.284Z,101235.00
2023-05-19T06:44:57.359Z,101223.81
2023-05-19T06:45:37.247Z,101237.44
2023-05-19T06:46:17.845Z,101233.84
2023-05-19T06:46:58.296Z,101199.13
2023-05-19T06:47:38.470Z,101234.72
2023-05-19T06:48:19.239Z,101207.19
2023-05-19T06:48:59.359Z,101229.53
2023-05-19T06:49:39.292Z,101210.72
2023-05-19T06:50:19.357Z,101231.56
2023-05-19T06:50:59.271Z,101215.91
2023-05-19T06:51:39.332Z,101239.03
2023-05-19T06:52:20.258Z,101225.53
2023-05-19T06:53:00.677Z,101235.25
2023-05-19T06:53:41.226Z,101222.94
2023-05-19T06:54:21.305Z,101224.34
2023-05-19T06:55:01.257Z,101212.03
2023-05-19T06:55:54.387Z,101237.00
2023-05-19T06:56:39.284Z,101222.66
2023-05-19T06:57:19.309Z,101230.72
2023-05-19T06:57:59.261Z,101233.84
2023-05-19T06:58:39.505Z,101238.72
2023-05-19T06:59:19.240Z,101236.00
2023-05-19T06:59:59.311Z,101246.91
2023-05-19T07:00:40.232Z,101236.00
2023-05-19T07:01:20.511Z,101233.84
2023-05-19T07:02:00.475Z,101228.56
2023-05-19T07:02:47.491Z,101241.88
2023-05-19T07:03:31.342Z,101236.97
2023-05-19T07:04:12.527Z,101242.16
2023-05-19T07:04:54.230Z,101233.28
2023-05-19T07:05:36.726Z,101228.41
2023-05-19T07:06:19.245Z,101235.28
2023-05-19T07:07:11.217Z,101242.47
2023-05-19T07:08:05.249Z,101246.16
2023-05-19T07:08:59.251Z,101248.19
2023-05-19T07:09:54.231Z,101223.38
2023-05-19T07:10:48.217Z,101226.38
2023-05-19T07:11:42.240Z,101240.16
2023-05-19T07:12:29.249Z,101228.25
2023-05-19T07:13:04.436Z,101227.28
2023-05-19T07:13:52.243Z,101228.69
2023-05-19T07:14:26.327Z,101232.97
2023-05-19T07:15:14.213Z,101235.00
2023-05-19T07:15:52.411Z,101222.41
2023-05-19T07:16:41.297Z,101219.50
2023-05-19T07:17:15.499Z,101222.66
2023-05-19T07:17:55.283Z,101239.59
2023-05-19T07:18:35.944Z,101243.06
2023-05-19T07:19:16.296Z,101236.84
2023-05-19T07:19:56.423Z,101247.06
2023-05-19T07:20:37.214Z,101232.41
2023-05-19T07:21:17.432Z,101234.28
2023-05-19T07:21:57.264Z,101246.22
2023-05-19T07:22:38.504Z,101235.88
2023-05-19T07:23:18.223Z,101242.75
2023-05-19T07:23:58.297Z,101222.34
2023-05-19T07:24:39.240Z,101246.63
2023-05-19T07:25:19.310Z,101243.88
2023-05-19T07:26:03.212Z,101241.72
2023-05-19T07:26:43.337Z,101246.16
2023-05-19T07:27:23.247Z,101253.06
2023-05-19T07:28:04.310Z,101244.41
2023-05-19T07:28:45.209Z,101236.25
2023-05-19T07:29:25.695Z,101224.34
2023-05-19T07:30:06.256Z,101237.69
2023-05-19T07:30:46.294Z,101228.78
2023-05-19T07:31:26.265Z,101258.03
2023-05-19T07:32:06.318Z,101226.25
2023-05-19T07:32:47.229Z,101250.06
2023-05-19T07:33:27.284Z,101228.69
2023-05-19T07:34:10.240Z,101250.50
2023-05-19T07:34:50.512Z,101253.66
2023-05-19T07:35:31.217Z,101252.50
2023-05-19T07:36:11.431Z,101249.91
2023-05-19T07:36:52.212Z,101242.63
2023-05-19T07:37:32.354Z,101249.31
2023-05-19T07:38:14.191Z,101247.06
2023-05-19T07:38:54.344Z,101246.34
2023-05-19T07:39:36.315Z,101247.75
2023-05-19T07:40:16.324Z,101252.38
2023-05-19T07:40:57.209Z,101247.63
2023-05-19T07:41:37.286Z,101227.41
2023-05-19T07:42:17.202Z,101245.31
2023-05-19T07:42:59.297Z,101250.81
2023-05-19T07:43:39.210Z,101233.00
2023-05-19T07:44:19.330Z,101224.34
2023-05-19T07:45:00.275Z,101249.34
2023-05-19T07:45:40.349Z,101238.28
2023-05-19T07:46:23.215Z,101237.28
2023-05-19T07:47:03.374Z,101235.03
2023-05-19T07:47:44.243Z,101250.75
2023-05-19T07:48:25.774Z,101244.75
2023-05-19T07:49:07.182Z,101234.13
2023-05-19T07:49:49.116Z,101229.25
2023-05-19T07:50:32.406Z,101233.56
2023-05-19T07:51:13.372Z,101217.50
2023-05-19T07:51:54.193Z,101227.50
2023-05-19T07:52:34.324Z,101239.59
2023-05-19T07:53:15.182Z,101247.91
2023-05-19T07:53:49.101Z,101242.31
2023-05-19T07:54:36.183Z,101223.50
2023-05-19T07:55:09.965Z,101227.69
2023-05-19T07:55:58.504Z,101220.63
2023-05-19T07:56:32.956Z,101250.91
2023-05-19T07:57:21.162Z,101243.06
2023-05-19T07:57:54.889Z,101248.19
2023-05-19T07:58:44.218Z,101227.28
2023-05-19T07:59:17.994Z,101230.44
2023-05-19T08:00:10.870Z,101242.59
2023-05-19T08:00:45.917Z,101236.13
2023-05-19T08:01:28.238Z,101241.88
2023-05-19T08:02:02.382Z,101238.56
2023-05-19T08:02:36.404Z,101228.84
2023-05-19T08:03:27.510Z,101247.91
2023-05-19T08:04:01.552Z,101218.91
2023-05-19T08:04:35.946Z,101228.56
2023-05-19T08:05:21.085Z,101207.56
2023-05-19T08:05:58.259Z,101239.03